createdAt,value
2023-03-17T00:01:25.665Z,6.00
2023-03-17T00:03:55.209Z,6.00
2023-03-17T00:06:29.264Z,6.00
2023-03-17T00:08:58.258Z,6.00
2023-03-17T00:11:28.964Z,5.90
2023-03-17T00:13:57.637Z,6.00
2023-03-17T00:16:28.186Z,6.00
2023-03-17T00:18:57.565Z,6.00
2023-03-17T00:21:29.124Z,6.00
2023-03-17T00:23:57.654Z,5.90
2023-03-17T00:26:27.834Z,5.90
2023-03-17T00:28:56.238Z,5.90
2023-03-17T00:31:27.251Z,5.90
2023-03-17T00:33:55.963Z,5.90
2023-03-17T00:36:28.030Z,5.90
2023-03-17T00:38:57.228Z,5.90
2023-03-17T00:41:29.474Z,5.90
2023-03-17T00:43:57.714Z,5.80
2023-03-17T00:46:28.784Z,5.80
2023-03-17T00:48:58.547Z,5.80
2023-03-17T00:51:27.032Z,5.80
2023-03-17T00:53:57.015Z,5.80
2023-03-17T00:56:25.141Z,5.80
2023-03-17T00:58:54.871Z,5.80
2023-03-17T01:01:23.191Z,5.70
2023-03-17T01:03:51.344Z,5.80
2023-03-17T01:06:20.155Z,5.70
2023-03-17T01:08:48.549Z,5.70
2023-03-17T01:11:19.080Z,5.70
2023-03-17T01:13:49.033Z,5.80
2023-03-17T01:16:18.594Z,5.70
2023-03-17T01:18:46.788Z,5.70
2023-03-17T01:21:15.388Z,5.70
2023-03-17T01:23:43.646Z,5.70
2023-03-17T01:26:12.617Z,5.70
2023-03-17T01:28:40.778Z,5.70
2023-03-17T01:31:09.618Z,5.70
2023-03-17T01:33:39.715Z,5.70
2023-03-17T01:36:08.542Z,5.70
2023-03-17T01:38:37.640Z,5.70
2023-03-17T01:41:06.402Z,5.70
2023-03-17T01:43:34.801Z,5.60
2023-03-17T01:46:25.319Z,5.60
2023-03-17T01:49:14.593Z,5.60
2023-03-17T01:51:50.538Z,5.60
2023-03-17T01:54:25.383Z,5.60
2023-03-17T01:56:56.228Z,5.60
2023-03-17T01:59:29.011Z,5.60
2023-03-17T02:02:02.299Z,5.60
2023-03-17T02:04:32.681Z,5.60
2023-03-17T02:07:03.822Z,5.60
2023-03-17T02:09:34.057Z,5.60
2023-03-17T02:12:03.791Z,5.60
2023-03-17T02:14:32.515Z,5.60
2023-03-17T02:17:00.775Z,5.60
2023-03-17T02:19:29.400Z,5.60
2023-03-17T02:22:00.602Z,5.60
2023-03-17T02:24:34.314Z,5.60
2023-03-17T02:27:06.991Z,5.60
2023-03-17T02:29:37.800Z,5.60
2023-03-17T02:32:06.660Z,5.60
2023-03-17T02:34:35.699Z,5.60
2023-03-17T02:37:07.784Z,5.60
2023-03-17T02:39:36.378Z,5.50
2023-03-17T02:42:05.439Z,5.50
2023-03-17T02:44:35.609Z,5.60
2023-03-17T02:47:04.360Z,5.50
2023-03-17T02:49:33.966Z,5.50
2023-03-17T02:52:02.599Z,5.50
2023-03-17T02:54:32.136Z,5.50
2023-03-17T02:57:00.352Z,5.50
2023-03-17T02:59:29.129Z,5.50
2023-03-17T03:01:57.162Z,5.50
2023-03-17T03:04:26.263Z,5.50
2023-03-17T03:06:54.823Z,5.40
2023-03-17T03:09:24.268Z,5.40
2023-03-17T03:11:53.843Z,5.40
2023-03-17T03:14:22.088Z,5.40
2023-03-17T03:16:50.274Z,5.40
2023-03-17T03:19:18.753Z,5.30
2023-03-17T03:21:47.244Z,5.30
2023-03-17T03:24:15.299Z,5.30
2023-03-17T03:26:43.837Z,5.30
2023-03-17T03:29:13.457Z,5.30
2023-03-17T03:31:42.437Z,5.30
2023-03-17T03:34:10.527Z,5.30
2023-03-17T03:36:38.923Z,5.20
2023-03-17T03:39:08.007Z,5.20
2023-03-17T03:41:36.767Z,5.20
2023-03-17T03:44:04.843Z,5.10
2023-03-17T03:46:34.363Z,5.10
2023-03-17T03:49:02.577Z,5.10
2023-03-17T03:51:30.718Z,5.10
2023-03-17T03:53:58.859Z,5.10
2023-03-17T03:56:27.094Z,5.00
2023-03-17T03:58:56.493Z,5.00
2023-03-17T04:01:24.710Z,5.00
2023-03-17T04:03:54.205Z,5.00
2023-03-17T04:06:22.313Z,4.90
2023-03-17T04:08:50.412Z,4.90
2023-03-17T04:11:18.520Z,4.90
2023-03-17T04:13:46.600Z,4.90
2023-03-17T04:16:14.699Z,4.80
2023-03-17T04:18:42.963Z,4.80
2023-03-17T04:21:13.556Z,4.80
2023-03-17T04:23:41.668Z,4.80
2023-03-17T04:26:10.466Z,4.70
2023-03-17T04:28:38.772Z,4.70
2023-03-17T04:31:07.667Z,4.70
2023-03-17T04:33:35.778Z,4.70
2023-03-17T04:36:04.090Z,4.70
2023-03-17T04:38:33.688Z,4.60
2023-03-17T04:41:02.439Z,4.60
2023-03-17T04:43:30.602Z,4.60
2023-03-17T04:45:58.776Z,4.60
2023-03-17T04:48:26.969Z,4.60
2023-03-17T04:50:55.153Z,4.60
2023-03-17T04:53:23.415Z,4.60
2023-03-17T04:55:52.884Z,4.60
2023-03-17T04:58:30.498Z,4.60
2023-03-17T05:00:59.419Z,4.60
2023-03-17T05:03:28.577Z,4.60
2023-03-17T05:05:57.382Z,4.60
2023-03-17T05:08:26.302Z,4.50
2023-03-17T05:10:56.031Z,4.50
2023-03-17T05:13:24.975Z,4.50
2023-03-17T05:15:55.286Z,4.50
2023-03-17T05:18:26.025Z,4.50
2023-03-17T05:20:54.538Z,4.50
2023-03-17T05:23:23.157Z,4.50
2023-03-17T05:25:51.434Z,4.50
2023-03-17T05:28:21.426Z,4.50
2023-03-17T05:30:50.361Z,4.50
2023-03-17T05:33:18.969Z,4.50
2023-03-17T05:35:47.492Z,4.50
2023-03-17T05:38:16.381Z,4.50
2023-03-17T05:40:45.896Z,4.50
2023-03-17T05:43:13.984Z,4.50
2023-03-17T05:45:43.494Z,4.50
2023-03-17T05:48:12.451Z,4.60
2023-03-17T05:50:41.662Z,4.50
2023-03-17T05:53:10.657Z,4.60
2023-03-17T05:55:38.915Z,4.60
2023-03-17T05:58:07.837Z,4.60
2023-03-17T06:00:36.456Z,4.60
2023-03-17T06:03:09.515Z,4.60
2023-03-17T06:05:38.804Z,4.60
2023-03-17T06:08:07.287Z,4.60
2023-03-17T06:10:38.549Z,4.60
2023-03-17T06:13:06.722Z,4.60
2023-03-17T06:15:36.230Z,4.70
2023-03-17T06:18:06.234Z,4.70
2023-03-17T06:20:35.418Z,4.70
2023-03-17T06:23:05.734Z,4.80
2023-03-17T06:25:35.480Z,4.80
2023-03-17T06:28:05.548Z,4.80
2023-03-17T06:30:34.999Z,4.80
2023-03-17T06:33:03.392Z,4.90
2023-03-17T06:35:34.347Z,5.00
2023-03-17T06:38:03.454Z,5.10
2023-03-17T06:40:32.182Z,5.20
2023-03-17T06:43:01.214Z,5.40
2023-03-17T06:45:29.805Z,5.50
2023-03-17T06:47:58.133Z,5.60
2023-03-17T06:50:27.272Z,5.70
2023-03-17T06:52:56.700Z,5.70
2023-03-17T06:55:28.011Z,5.80
2023-03-17T06:58:00.439Z,5.80
2023-03-17T07:00:28.641Z,5.90
2023-03-17T07:02:56.899Z,5.90
2023-03-17T07:05:25.117Z,6.00
2023-03-17T07:07:53.338Z,6.10
2023-03-17T07:10:23.412Z,6.20
2023-03-17T07:12:51.633Z,6.20
2023-03-17T07:15:20.861Z,6.20
2023-03-17T07:17:48.980Z,6.30
2023-03-17T07:20:17.864Z,6.40
2023-03-17T07:22:46.554Z,6.50
2023-03-17T07:25:15.572Z,6.50
2023-03-17T07:30:28.659Z,6.60
2023-03-17T07:32:58.218Z,6.60
2023-03-17T07:35:27.802Z,6.70
2023-03-17T07:37:55.994Z,6.80
2023-03-17T07:40:24.141Z,6.90
2023-03-17T07:42:52.392Z,6.90
2023-03-17T07:45:20.656Z,7.00
2023-03-17T07:47:50.662Z,7.10
2023-03-17T07:50:19.248Z,7.20
2023-03-17T07:52:47.727Z,7.30
2023-03-17T07:55:16.580Z,7.40
2023-03-17T07:57:45.065Z,7.50
2023-03-17T08:00:17.367Z,7.60
2023-03-17T08:02:48.192Z,7.70
2023-03-17T08:05:35.782Z,7.80
2023-03-17T08:08:35.725Z,8.00
2023-03-17T08:11:05.688Z,8.20
2023-03-17T08:13:40.448Z,8.40
2023-03-17T08:16:08.980Z,8.50
2023-03-17T08:18:37.691Z,8.70
2023-03-17T08:21:07.500Z,8.90
2023-03-17T08:23:35.665Z,9.10
2023-03-17T08:26:04.892Z,9.20
2023-03-17T08:28:33.470Z,9.40
2023-03-17T08:31:12.218Z,9.60
2023-03-17T08:33:42.404Z,9.70
2023-03-17T08:36:12.853Z,9.80
2023-03-17T08:38:42.637Z,9.90
2023-03-17T08:41:12.402Z,10.00
2023-03-17T08:43:41.996Z,10.20
2023-03-17T08:46:15.819Z,10.30
2023-03-17T08:48:45.409Z,10.50
2023-03-17T08:51:18.560Z,10.60
2023-03-17T08:53:47.778Z,10.70
2023-03-17T08:56:16.888Z,10.90
2023-03-17T08:58:45.815Z,11.00
2023-03-17T09:01:14.512Z,11.20
2023-03-17T09:03:43.383Z,11.30
2023-03-17T09:06:13.666Z,11.30
2023-03-17T09:08:47.315Z,11.40
2023-03-17T09:11:17.777Z,11.50
2023-03-17T09:13:47.444Z,11.60
2023-03-17T09:16:16.251Z,11.70
2023-03-17T09:18:44.892Z,11.70
2023-03-17T09:21:14.858Z,11.70
2023-03-17T09:23:44.601Z,11.70
2023-03-17T09:26:13.561Z,11.80
2023-03-17T09:28:41.749Z,11.90
2023-03-17T09:31:11.439Z,12.00
2023-03-17T09:33:40.660Z,12.10
2023-03-17T09:36:10.150Z,12.10
2023-03-17T09:38:38.953Z,12.20
2023-03-17T09:41:53.000Z,12.30
2023-03-17T09:44:31.146Z,12.40
2023-03-17T09:47:07.614Z,12.40
2023-03-17T09:49:44.843Z,12.50
2023-03-17T09:52:14.895Z,12.50
2023-03-17T09:54:43.880Z,12.60
2023-03-17T09:57:18.070Z,12.70
2023-03-17T09:59:48.455Z,12.80
2023-03-17T10:02:22.883Z,12.80
2023-03-17T10:04:51.677Z,12.90
2023-03-17T10:07:27.022Z,13.00
2023-03-17T10:10:02.944Z,13.00
2023-03-17T10:12:46.801Z,13.10
2023-03-17T10:15:22.703Z,13.10
2023-03-17T10:17:53.393Z,13.20
2023-03-17T10:20:27.049Z,13.20
2023-03-17T10:22:58.178Z,13.20
2023-03-17T10:25:31.917Z,13.30
2023-03-17T10:28:09.032Z,13.30
2023-03-17T10:30:38.471Z,13.30
2023-03-17T10:33:07.988Z,13.30
2023-03-17T10:35:37.547Z,13.40
2023-03-17T10:38:17.076Z,13.40
2023-03-17T10:40:48.905Z,13.50
2023-03-17T10:43:23.517Z,13.50
2023-03-17T10:46:02.102Z,13.50
2023-03-17T10:48:31.436Z,13.50
2023-03-17T10:51:00.216Z,13.60
2023-03-17T10:53:29.581Z,13.60
2023-03-17T10:56:01.393Z,13.60
2023-03-17T10:58:42.362Z,13.70
2023-03-17T11:01:21.596Z,13.70
2023-03-17T11:03:50.847Z,13.80
2023-03-17T11:06:21.643Z,13.80
2023-03-17T11:08:51.379Z,13.80
2023-03-17T11:11:27.148Z,13.90
2023-03-17T11:14:05.000Z,13.90
2023-03-17T11:16:37.491Z,14.00
2023-03-17T11:19:09.372Z,14.00
2023-03-17T11:21:48.659Z,14.10
2023-03-17T11:24:21.238Z,14.10
2023-03-17T11:26:57.849Z,14.20
2023-03-17T11:29:48.077Z,14.20
2023-03-17T11:32:26.910Z,14.20
2023-03-17T11:35:28.250Z,14.30
2023-03-17T11:38:24.562Z,14.40
2023-03-17T11:41:18.784Z,14.40
2023-03-17T11:44:01.596Z,14.50
2023-03-17T11:46:35.553Z,14.60
2023-03-17T11:49:11.280Z,14.60
2023-03-17T11:51:51.667Z,14.70
2023-03-17T11:54:27.963Z,14.70
2023-03-17T11:56:59.968Z,14.80
2023-03-17T11:59:33.820Z,14.90
2023-03-17T12:02:15.251Z,15.00
2023-03-17T12:04:50.899Z,15.10
2023-03-17T12:07:23.553Z,15.20
2023-03-17T12:09:59.596Z,15.20
2023-03-17T12:12:33.144Z,15.30
2023-03-17T12:15:02.915Z,15.40
2023-03-17T12:17:39.535Z,15.40
2023-03-17T12:20:16.324Z,15.40
2023-03-17T12:22:48.177Z,15.50
2023-03-17T12:25:24.631Z,15.50
2023-03-17T12:28:01.306Z,15.50
2023-03-17T12:30:35.315Z,15.60
2023-03-17T12:33:18.167Z,15.60
2023-03-17T12:35:46.587Z,15.70
2023-03-17T12:38:20.764Z,15.70
2023-03-17T12:41:15.734Z,15.80
2023-03-17T12:43:56.920Z,15.80
2023-03-17T12:46:47.482Z,15.80
2023-03-17T12:49:57.558Z,15.80
2023-03-17T12:52:45.953Z,15.80
2023-03-17T12:55:18.271Z,15.80
2023-03-17T12:57:48.483Z,15.80
2023-03-17T13:00:21.468Z,15.80
2023-03-17T13:02:52.349Z,15.80
2023-03-17T13:05:33.952Z,15.80
2023-03-17T13:08:05.684Z,15.80
2023-03-17T13:10:40.889Z,15.80
2023-03-17T13:13:13.778Z,15.90
2023-03-17T13:15:59.835Z,15.90
2023-03-17T13:18:50.314Z,15.90
2023-03-17T13:21:26.350Z,16.00
2023-03-17T13:24:39.610Z,16.00
2023-03-17T13:27:13.364Z,16.00
2023-03-17T13:29:48.669Z,16.00
2023-03-17T13:32:42.889Z,16.10
2023-03-17T13:35:25.093Z,16.10
2023-03-17T13:38:31.262Z,16.10
2023-03-17T13:41:48.408Z,16.10
2023-03-17T13:44:32.733Z,16.10
2023-03-17T13:47:17.589Z,16.10
2023-03-17T13:49:50.622Z,16.10
2023-03-17T13:52:24.958Z,16.10
2023-03-17T13:55:05.344Z,16.10
2023-03-17T13:57:37.465Z,16.10
2023-03-17T14:00:22.640Z,16.10
2023-03-17T14:02:54.719Z,16.10
2023-03-17T14:05:28.219Z,16.10
2023-03-17T14:08:00.684Z,16.10
2023-03-17T14:10:34.087Z,16.10
2023-03-17T14:13:13.174Z,16.10
2023-03-17T14:15:48.099Z,16.00
2023-03-17T14:18:18.179Z,16.00
2023-03-17T14:20:54.873Z,16.00
2023-03-17T14:23:24.430Z,16.00
2023-03-17T14:25:56.958Z,16.00
2023-03-17T14:28:28.493Z,16.00
2023-03-17T14:31:00.568Z,16.00
2023-03-17T14:33:30.572Z,16.10
2023-03-17T14:36:00.463Z,16.10
2023-03-17T14:38:30.340Z,16.10
2023-03-17T14:41:05.316Z,16.10
2023-03-17T14:43:35.256Z,16.10
2023-03-17T14:46:05.334Z,16.10
2023-03-17T14:48:36.437Z,16.10
2023-03-17T14:51:16.071Z,16.10
2023-03-17T14:53:46.606Z,16.10
2023-03-17T14:56:21.921Z,16.10
2023-03-17T14:58:52.573Z,16.10
2023-03-17T15:01:33.146Z,16.10
2023-03-17T15:04:09.372Z,16.10
2023-03-17T15:06:47.898Z,16.10
2023-03-17T15:09:21.715Z,16.20
2023-03-17T15:11:51.868Z,16.20
2023-03-17T15:14:23.858Z,16.20
2023-03-17T15:16:53.479Z,16.20
2023-03-17T15:19:27.588Z,16.20
2023-03-17T15:22:00.251Z,16.20
2023-03-17T15:24:38.268Z,16.20
2023-03-17T15:27:14.212Z,16.10
2023-03-17T15:29:42.624Z,16.10
2023-03-17T15:32:15.705Z,16.10
2023-03-17T15:34:44.464Z,16.10
2023-03-17T15:37:20.524Z,16.10
2023-03-17T15:39:49.404Z,16.10
2023-03-17T15:42:20.130Z,16.00
2023-03-17T15:44:48.564Z,16.00
2023-03-17T15:47:18.769Z,16.00
2023-03-17T15:49:48.210Z,15.90
2023-03-17T15:52:18.457Z,15.90
2023-03-17T15:54:46.887Z,15.90
2023-03-17T15:57:15.298Z,15.90
2023-03-17T15:59:45.088Z,15.80
2023-03-17T16:02:27.554Z,15.80
2023-03-17T16:04:57.082Z,15.80
2023-03-17T16:07:25.929Z,15.70
2023-03-17T16:09:54.532Z,15.70
2023-03-17T16:12:22.736Z,15.70
2023-03-17T16:14:52.255Z,15.70
2023-03-17T16:17:26.746Z,15.70
2023-03-17T16:19:55.974Z,15.60
2023-03-17T16:22:39.368Z,15.60
2023-03-17T16:25:19.807Z,15.60
2023-03-17T16:27:48.854Z,15.60
2023-03-17T16:30:21.186Z,15.50
2023-03-17T16:32:50.174Z,15.50
2023-03-17T16:35:20.618Z,15.50
2023-03-17T16:37:52.269Z,15.40
2023-03-17T16:40:22.951Z,15.40
2023-03-17T16:42:52.015Z,15.40
2023-03-17T16:46:29.847Z,15.40
2023-03-17T16:48:59.491Z,15.30
2023-03-17T16:51:27.643Z,15.20
2023-03-17T16:53:55.811Z,15.20
2023-03-17T16:56:26.282Z,15.10
2023-03-17T16:58:54.383Z,15.10
2023-03-17T17:01:26.169Z,15.10
2023-03-17T17:03:54.883Z,15.10
2023-03-17T17:06:25.228Z,15.00
2023-03-17T17:08:53.941Z,15.00
2023-03-17T17:11:22.690Z,14.90
2023-03-17T17:13:51.722Z,14.90
2023-03-17T17:16:24.432Z,14.90
2023-03-17T17:18:52.703Z,14.80
2023-03-17T17:21:20.812Z,14.80
2023-03-17T17:23:52.895Z,14.70
2023-03-17T17:26:22.038Z,14.70
2023-03-17T17:28:50.402Z,14.60
2023-03-17T17:31:18.837Z,14.60
2023-03-17T17:33:47.084Z,14.50
2023-03-17T17:36:17.206Z,14.50
2023-03-17T17:38:45.906Z,14.40
2023-03-17T17:41:21.295Z,14.40
2023-03-17T17:43:50.315Z,14.30
2023-03-17T17:46:20.383Z,14.30
2023-03-17T17:48:50.105Z,14.30
2023-03-17T17:51:18.689Z,14.20
2023-03-17T17:53:46.753Z,14.20
2023-03-17T17:56:20.395Z,14.10
2023-03-17T17:58:48.728Z,14.10
2023-03-17T18:01:20.130Z,14.00
2023-03-17T18:03:48.634Z,14.00
2023-03-17T18:06:17.931Z,13.90
2023-03-17T18:08:46.319Z,13.90
2023-03-17T18:11:14.492Z,13.90
2023-03-17T18:13:44.082Z,13.80
2023-03-17T18:16:16.267Z,13.80
2023-03-17T18:18:45.985Z,13.80
2023-03-17T18:21:14.917Z,13.80
2023-03-17T18:23:47.033Z,13.70
2023-03-17T18:26:17.092Z,13.70
2023-03-17T18:28:47.950Z,13.60
2023-03-17T18:31:19.998Z,13.60
2023-03-17T18:33:50.059Z,13.50
2023-03-17T18:36:18.505Z,13.50
2023-03-17T18:38:46.713Z,13.50
2023-03-17T18:41:15.570Z,13.50
2023-03-17T18:43:44.838Z,13.40
2023-03-17T18:46:14.609Z,13.40
2023-03-17T18:48:42.692Z,13.40
2023-03-17T18:51:11.117Z,13.30
2023-03-17T18:53:39.298Z,13.30
2023-03-17T18:56:08.099Z,13.30
2023-03-17T18:58:36.727Z,13.30
2023-03-17T19:01:05.031Z,13.20
2023-03-17T19:03:36.253Z,13.20
2023-03-17T19:06:13.648Z,13.20
2023-03-17T19:08:41.971Z,13.10
2023-03-17T19:11:11.843Z,13.10
2023-03-17T19:13:40.646Z,13.10
2023-03-17T19:16:10.459Z,13.10
2023-03-17T19:18:42.253Z,13.00
2023-03-17T19:21:11.931Z,13.00
2023-03-17T19:23:41.599Z,13.00
2023-03-17T19:26:10.308Z,13.00
2023-03-17T19:28:38.718Z,12.90
2023-03-17T19:31:07.607Z,12.90
2023-03-17T19:33:36.026Z,12.90
2023-03-17T19:36:11.617Z,12.90
2023-03-17T19:38:42.920Z,12.80
2023-03-17T19:41:11.319Z,12.80
2023-03-17T19:43:41.422Z,12.80
2023-03-17T19:46:10.172Z,12.70
2023-03-17T19:48:38.590Z,12.70
2023-03-17T19:51:08.234Z,12.70
2023-03-17T19:53:37.658Z,12.70
2023-03-17T19:56:06.384Z,12.70
2023-03-17T19:58:34.562Z,12.70
2023-03-17T20:01:03.722Z,12.60
2023-03-17T20:03:33.556Z,12.60
2023-03-17T20:06:05.891Z,12.60
2023-03-17T20:08:35.682Z,12.60
2023-03-17T20:11:05.690Z,12.60
2023-03-17T20:13:34.480Z,12.50
2023-03-17T20:16:03.612Z,12.50
2023-03-17T20:18:32.236Z,12.50
2023-03-17T20:21:01.639Z,12.50
2023-03-17T20:23:29.839Z,12.40
2023-03-17T20:25:59.363Z,12.40
2023-03-17T20:28:29.907Z,12.40
2023-03-17T20:31:00.675Z,12.40
2023-03-17T20:33:28.957Z,12.40
2023-03-17T20:36:00.015Z,12.40
2023-03-17T20:38:28.873Z,12.40
2023-03-17T20:41:21.558Z,12.30
2023-03-17T20:47:32.163Z,12.30
2023-03-17T20:53:59.826Z,12.30
2023-03-17T20:56:38.546Z,12.20
2023-03-17T20:59:09.654Z,12.20
2023-03-17T21:01:40.286Z,12.20
2023-03-17T21:04:09.868Z,12.20
2023-03-17T21:06:39.446Z,12.20
2023-03-17T21:09:07.692Z,12.20
2023-03-17T21:11:38.939Z,12.20
2023-03-17T21:14:08.029Z,12.10
2023-03-17T21:16:37.667Z,12.10
2023-03-17T21:19:09.248Z,12.10
2023-03-17T21:21:37.854Z,12.10
2023-03-17T21:24:08.412Z,12.10
2023-03-17T21:26:38.707Z,12.10
2023-03-17T21:29:06.778Z,12.10
2023-03-17T21:31:35.257Z,12.10
2023-03-17T21:34:03.299Z,12.10
2023-03-17T21:36:31.824Z,12.10
2023-03-17T21:39:00.032Z,12.10
2023-03-17T21:41:33.171Z,12.10
2023-03-17T21:44:03.987Z,12.10
2023-03-17T21:46:33.495Z,12.00
2023-03-17T21:49:01.738Z,12.00
2023-03-17T21:51:29.915Z,12.00
2023-03-17T21:53:58.473Z,12.00
2023-03-17T21:56:27.385Z,12.00
2023-03-17T21:58:55.479Z,12.00
2023-03-17T22:01:26.065Z,12.00
2023-03-17T22:03:54.430Z,12.00
2023-03-17T22:06:29.457Z,12.00
2023-03-17T22:08:57.726Z,12.00
2023-03-17T22:11:25.820Z,11.90
2023-03-17T22:14:08.375Z,12.00
2023-03-17T22:16:38.505Z,11.90
2023-03-17T22:19:07.133Z,11.90
2023-03-17T22:21:35.413Z,11.90
2023-03-17T22:24:03.496Z,11.90
2023-03-17T22:26:31.518Z,11.90
2023-03-17T22:28:59.632Z,11.90
2023-03-17T22:31:29.533Z,11.90
2023-03-17T22:34:00.073Z,11.90
2023-03-17T22:36:28.884Z,11.90
2023-03-17T22:38:58.322Z,11.90
2023-03-17T22:41:29.062Z,11.90
2023-03-17T22:43:57.897Z,11.90
2023-03-17T22:46:27.189Z,11.90
2023-03-17T22:48:55.500Z,11.90
2023-03-17T22:51:26.651Z,11.90
2023-03-17T22:53:56.405Z,11.90
2023-03-17T22:56:24.970Z,11.90
2023-03-17T22:58:53.699Z,11.90
2023-03-17T23:01:23.858Z,11.90
2023-03-17T23:03:52.385Z,11.90
2023-03-17T23:06:21.039Z,11.90
2023-03-17T23:08:50.929Z,11.90
2023-03-17T23:11:22.224Z,11.90
2023-03-17T23:13:51.373Z,11.90
2023-03-17T23:16:20.287Z,11.90
2023-03-17T23:18:48.571Z,11.90
2023-03-17T23:21:25.138Z,11.90
2023-03-17T23:23:55.036Z,11.90
2023-03-17T23:26:23.945Z,11.90
2023-03-17T23:28:52.112Z,11.90
2023-03-17T23:31:22.519Z,11.90
2023-03-17T23:33:51.418Z,12.00
2023-03-17T23:36:20.060Z,12.00
2023-03-17T23:38:49.514Z,12.00
2023-03-17T23:41:19.684Z,11.90
2023-03-17T23:43:47.853Z,12.00
2023-03-17T23:46:16.114Z,12.00
2023-03-17T23:48:44.553Z,12.10
2023-03-17T23:51:14.309Z,12.10
2023-03-17T23:53:42.986Z,12.10
2023-03-17T23:56:19.391Z,12.10
2023-03-17T23:58:49.052Z,12.10
